Time;durP1;ratioP1;P1;durP2;ratioP2;P2;SDS_P1;SDS_P2;PMS_P1;PMS_P2;Temp;Humidity;BMP_temperature;BMP_pressure;BME280_temperature;BME280_humidity;BME280_pressure;Samples;Min_cycle;Max_cycle;Signal;HPM_P1;HPM_P2
2022/05/03 00:01:52;;;;;;;11.87;10.10;;;8.40;99.90;;;;;;5069711;28;20802;-83
2022/05/03 00:04:26;;;;;;;10.77;8.97;;;8.40;99.90;;;;;;5071155;28;20212;-87
2022/05/03 00:07:05;;;;;;;10.93;9.83;;;8.40;99.90;;;;;;5071893;28;20607;-84
2022/05/03 00:09:40;;;;;;;10.67;9.23;;;8.40;99.90;;;;;;5070578;28;20204;-87
2022/05/03 00:12:11;;;;;;;10.47;9.37;;;8.30;99.90;;;;;;5065402;28;20228;-81
2022/05/03 00:14:45;;;;;;;9.47;8.47;;;8.30;99.90;;;;;;5067114;28;20854;-80
2022/05/03 00:17:14;;;;;;;10.00;8.40;;;8.30;99.90;;;;;;5066051;28;20358;-81
2022/05/03 00:19:41;;;;;;;12.20;10.53;;;8.30;99.90;;;;;;5065144;28;20202;-82
2022/05/03 00:22:08;;;;;;;11.30;9.90;;;8.30;99.90;;;;;;5068008;28;20212;-82
2022/05/03 00:24:36;;;;;;;11.57;9.67;;;8.20;99.90;;;;;;5070031;28;20201;-81
2022/05/03 00:27:03;;;;;;;12.40;9.07;;;8.20;99.90;;;;;;5068278;28;20232;-81
2022/05/03 00:29:30;;;;;;;9.63;8.63;;;8.20;99.90;;;;;;5070277;28;20276;-86
2022/05/03 00:31:59;;;;;;;10.83;9.13;;;8.20;99.90;;;;;;5069120;28;20472;-83
2022/05/03 00:34:28;;;;;;;12.00;10.10;;;8.20;99.90;;;;;;5088020;28;20211;-82
2022/05/03 00:36:55;;;;;;;10.70;9.23;;;8.10;99.90;;;;;;5088867;28;20484;-81
2022/05/03 00:39:22;;;;;;;13.00;10.53;;;8.10;99.90;;;;;;5072053;28;20599;-86
2022/05/03 00:41:56;;;;;;;12.27;10.97;;;8.10;99.90;;;;;;5069546;28;20209;-83
2022/05/03 00:47:41;;;;;;;14.27;11.20;;;8.00;99.90;;;;;;5071097;28;20311;-85
2022/05/03 00:50:10;;;;;;;11.73;10.33;;;7.90;99.90;;;;;;5069049;28;20739;-80
2022/05/03 00:52:41;;;;;;;13.17;11.03;;;7.90;99.90;;;;;;5070125;28;20198;-83
2022/05/03 00:55:22;;;;;;;12.60;11.30;;;7.90;99.90;;;;;;5069351;28;20221;-87
2022/05/03 00:58:04;;;;;;;14.07;12.67;;;7.90;99.90;;;;;;5069599;28;20193;-82
2022/05/03 01:00:34;;;;;;;11.83;10.50;;;7.80;99.90;;;;;;5071210;28;20202;-83
2022/05/03 01:03:11;;;;;;;12.33;10.73;;;7.80;99.90;;;;;;5070046;28;20204;-86
2022/05/03 01:05:55;;;;;;;11.87;10.17;;;7.80;99.90;;;;;;5070582;28;20197;-81
2022/05/03 01:08:33;;;;;;;13.23;10.63;;;7.80;99.90;;;;;;5069982;28;20284;-81
2022/05/03 01:11:16;;;;;;;10.80;9.57;;;7.70;99.90;;;;;;5069752;28;20585;-85
2022/05/03 01:13:48;;;;;;;13.10;11.70;;;7.70;99.90;;;;;;5067317;28;20220;-84
2022/05/03 01:16:26;;;;;;;11.30;9.87;;;7.70;99.90;;;;;;5066758;28;20193;-80
2022/05/03 01:19:00;;;;;;;13.57;11.00;;;7.70;99.90;;;;;;5071021;28;20295;-81
2022/05/03 01:21:41;;;;;;;12.50;11.23;;;7.70;99.90;;;;;;5072051;28;20185;-85
2022/05/03 01:24:32;;;;;;;16.47;12.10;;;7.70;99.90;;;;;;5069838;28;20240;-82
2022/05/03 01:27:43;;;;;;;14.57;12.37;;;7.70;99.90;;;;;;5070119;28;20209;-81
2022/05/03 01:30:12;;;;;;;19.80;14.00;;;7.60;99.90;;;;;;5007243;28;20207;-86
2022/05/03 01:32:45;;;;;;;11.93;10.40;;;7.60;99.90;;;;;;5054825;28;20670;-83
2022/05/03 01:35:15;;;;;;;14.70;13.10;;;7.60;99.90;;;;;;5070585;28;20207;-84
2022/05/03 01:38:08;;;;;;;12.90;11.03;;;7.60;99.90;;;;;;5071379;28;20320;-83
2022/05/03 01:40:52;;;;;;;12.00;9.63;;;7.50;99.90;;;;;;5069029;28;20205;-83
2022/05/03 01:43:40;;;;;;;9.93;8.87;;;7.50;99.90;;;;;;5068279;28;20212;-83
2022/05/03 01:46:18;;;;;;;12.63;10.43;;;7.50;99.90;;;;;;5068244;28;20208;-80
2022/05/03 01:52:06;;;;;;;10.73;8.97;;;7.50;99.90;;;;;;5068339;28;20241;-81
2022/05/03 01:54:54;;;;;;;11.27;9.63;;;7.50;99.90;;;;;;5067896;28;20209;-81
2022/05/03 01:57:28;;;;;;;10.37;8.17;;;7.50;99.90;;;;;;5067314;28;20197;-81
2022/05/03 02:00:05;;;;;;;9.90;8.47;;;7.50;99.90;;;;;;5067479;28;20196;-82
2022/05/03 02:02:50;;;;;;;10.77;9.47;;;7.50;99.90;;;;;;5069085;28;20190;-86
2022/05/03 02:05:30;;;;;;;10.23;9.10;;;7.40;99.90;;;;;;5069552;28;20792;-85
2022/05/03 02:07:58;;;;;;;10.90;9.27;;;7.40;99.90;;;;;;5069679;28;20220;-87
2022/05/03 02:10:41;;;;;;;10.13;8.90;;;7.40;99.90;;;;;;5071380;28;20287;-87
2022/05/03 02:13:21;;;;;;;9.93;8.40;;;7.40;99.90;;;;;;5074544;28;20197;-84
2022/05/03 02:15:49;;;;;;;10.33;8.83;;;7.40;99.90;;;;;;5092627;28;20181;-85
2022/05/03 02:18:25;;;;;;;10.67;9.37;;;7.40;99.90;;;;;;5092226;28;20236;-85
2022/05/03 02:21:14;;;;;;;11.23;9.37;;;7.30;99.90;;;;;;5093063;28;20196;-85
2022/05/03 02:23:52;;;;;;;11.10;9.87;;;7.30;99.90;;;;;;5069814;28;20233;-83
2022/05/03 02:26:32;;;;;;;10.53;8.83;;;7.30;99.90;;;;;;5069019;28;20497;-86
2022/05/03 02:29:05;;;;;;;11.97;9.30;;;7.30;99.90;;;;;;5068675;28;20194;-82
2022/05/03 02:31:42;;;;;;;12.53;10.20;;;7.30;99.90;;;;;;5083835;28;20292;-82
2022/05/03 02:34:22;;;;;;;10.20;9.07;;;7.20;99.90;;;;;;5088017;28;20188;-84
2022/05/03 02:36:56;;;;;;;13.07;11.17;;;7.20;99.90;;;;;;5090140;28;20212;-81
2022/05/03 02:39:28;;;;;;;11.47;9.90;;;7.20;99.90;;;;;;5089482;28;20266;-80
2022/05/03 02:41:59;;;;;;;11.93;10.20;;;7.20;99.90;;;;;;5069134;28;20233;-86
2022/05/03 02:44:28;;;;;;;11.63;9.93;;;7.20;99.90;;;;;;5069681;28;20255;-82
2022/05/03 02:47:03;;;;;;;11.13;9.63;;;7.20;99.90;;;;;;5068481;28;20900;-81
2022/05/03 02:49:44;;;;;;;11.53;9.77;;;7.20;99.90;;;;;;5068884;28;20189;-83
2022/05/03 02:52:23;;;;;;;10.70;9.13;;;7.20;99.90;;;;;;5079729;28;20271;-83
2022/05/03 02:55:01;;;;;;;12.07;9.77;;;7.20;99.90;;;;;;5088298;28;20533;-82
2022/05/03 02:57:38;;;;;;;11.40;9.63;;;7.10;99.90;;;;;;5089651;28;20188;-83
2022/05/03 03:03:07;;;;;;;9.97;8.83;;;7.10;99.90;;;;;;5068322;28;20231;-85
2022/05/03 03:05:38;;;;;;;10.10;9.07;;;7.10;99.90;;;;;;5069355;28;20243;-86
2022/05/03 03:08:07;;;;;;;10.93;9.30;;;7.10;99.90;;;;;;5069474;28;20264;-84
2022/05/03 03:10:43;;;;;;;10.83;9.40;;;7.10;99.90;;;;;;5069978;28;20600;-81
2022/05/03 03:13:16;;;;;;;10.70;9.60;;;7.10;99.90;;;;;;5070116;28;20190;-81
2022/05/03 03:15:42;;;;;;;11.27;9.67;;;7.00;99.90;;;;;;5068366;28;20201;-85
2022/05/03 03:18:14;;;;;;;10.27;9.17;;;7.00;99.90;;;;;;5066846;28;20208;-81
2022/05/03 03:20:46;;;;;;;15.83;9.30;;;7.00;99.90;;;;;;5067779;28;20237;-81
2022/05/03 03:23:18;;;;;;;14.87;11.23;;;7.00;99.90;;;;;;5066069;28;20233;-81
2022/05/03 03:25:48;;;;;;;13.20;11.37;;;7.00;99.90;;;;;;5066723;28;20193;-81
2022/05/03 03:28:19;;;;;;;12.40;10.07;;;7.00;99.90;;;;;;5066834;28;20224;-82
2022/05/03 03:30:51;;;;;;;12.60;10.00;;;7.00;99.90;;;;;;5066180;28;20196;-86
2022/05/03 03:33:19;;;;;;;12.10;9.80;;;7.10;99.90;;;;;;5066716;28;20208;-85
2022/05/03 03:35:48;;;;;;;11.40;10.17;;;7.10;99.90;;;;;;5066731;28;20217;-82
2022/05/03 03:38:15;;;;;;;11.93;10.50;;;7.10;99.90;;;;;;5065568;28;20818;-80
2022/05/03 03:40:45;;;;;;;11.80;10.47;;;7.10;99.90;;;;;;5068201;28;20216;-81
2022/05/03 03:43:13;;;;;;;11.47;9.83;;;7.20;99.90;;;;;;5067115;28;20209;-80
2022/05/03 03:45:41;;;;;;;16.07;12.50;;;7.20;99.90;;;;;;5067855;28;20583;-82
2022/05/03 03:48:08;;;;;;;15.87;13.47;;;7.20;99.90;;;;;;5066532;28;20221;-84
2022/05/03 03:50:37;;;;;;;18.83;15.40;;;7.30;99.90;;;;;;5067666;28;20558;-82
2022/05/03 03:53:06;;;;;;;21.43;15.57;;;7.30;99.90;;;;;;5066964;28;20207;-84
2022/05/03 03:55:34;;;;;;;22.03;17.53;;;7.40;99.90;;;;;;5067312;28;20217;-82
2022/05/03 03:58:02;;;;;;;18.03;15.40;;;7.40;99.90;;;;;;5070825;28;20201;-82
2022/05/03 04:00:29;;;;;;;20.07;16.70;;;7.50;99.90;;;;;;5071331;28;20212;-82
2022/05/03 04:02:56;;;;;;;23.70;19.20;;;7.50;99.90;;;;;;5071203;28;20792;-86
2022/05/03 04:05:24;;;;;;;23.03;17.30;;;7.50;99.90;;;;;;5071630;28;20726;-84
2022/05/03 04:07:52;;;;;;;20.87;16.57;;;7.60;99.90;;;;;;5071668;28;20637;-84
2022/05/03 04:10:21;;;;;;;20.37;16.53;;;7.60;99.90;;;;;;5070723;28;20222;-84
2022/05/03 04:12:48;;;;;;;25.80;21.03;;;7.60;99.90;;;;;;5072256;28;20201;-86
2022/05/03 04:15:15;;;;;;;27.27;22.43;;;7.70;99.90;;;;;;5071718;28;20209;-86
2022/05/03 04:17:41;;;;;;;29.93;21.97;;;7.80;99.90;;;;;;5072273;28;20204;-81
2022/05/03 04:20:09;;;;;;;28.23;22.37;;;7.80;99.90;;;;;;5070468;28;20590;-81
2022/05/03 04:22:36;;;;;;;28.90;23.03;;;7.90;99.90;;;;;;5070185;28;20237;-82
2022/05/03 04:25:04;;;;;;;29.33;23.30;;;7.90;99.90;;;;;;5080999;28;20204;-84
2022/05/03 04:27:33;;;;;;;33.13;25.47;;;8.00;99.90;;;;;;5089920;28;20315;-81
2022/05/03 04:30:01;;;;;;;29.67;23.97;;;8.00;99.90;;;;;;5089829;28;20209;-80
2022/05/03 04:32:29;;;;;;;34.97;28.07;;;8.10;99.90;;;;;;5089916;28;20227;-80
2022/05/03 04:34:56;;;;;;;37.03;28.93;;;8.20;99.90;;;;;;5071143;28;20213;-81
2022/05/03 04:37:23;;;;;;;36.60;27.50;;;8.20;99.90;;;;;;5069913;28;20228;-81
2022/05/03 04:39:50;;;;;;;30.17;24.20;;;8.30;99.90;;;;;;5075641;28;20215;-81
2022/05/03 04:42:17;;;;;;;29.60;24.57;;;8.40;99.90;;;;;;5090031;28;20216;-82
2022/05/03 04:44:45;;;;;;;30.07;24.80;;;8.50;99.90;;;;;;5090648;28;20211;-83
2022/05/03 04:47:12;;;;;;;36.13;27.80;;;8.50;99.90;;;;;;5072501;28;20209;-82
2022/05/03 04:49:39;;;;;;;39.23;28.23;;;8.60;99.90;;;;;;5068251;28;20213;-82
2022/05/03 04:52:06;;;;;;;35.60;27.87;;;8.70;99.90;;;;;;5068873;28;20201;-82
2022/05/03 04:54:35;;;;;;;37.30;28.83;;;8.80;99.90;;;;;;5069092;28;20208;-81
2022/05/03 04:57:04;;;;;;;36.37;29.13;;;8.90;99.90;;;;;;5068949;28;20221;-82
2022/05/03 04:59:31;;;;;;;35.33;29.57;;;8.90;99.90;;;;;;5069889;28;20205;-81
2022/05/03 05:01:59;;;;;;;47.23;33.93;;;9.00;99.90;;;;;;5068103;28;20772;-82
2022/05/03 05:04:26;;;;;;;41.20;31.27;;;9.10;99.90;;;;;;5069932;28;20197;-82
2022/05/03 05:06:53;;;;;;;41.63;31.90;;;9.20;99.90;;;;;;5070257;28;20200;-82
2022/05/03 05:09:20;;;;;;;36.67;29.87;;;9.30;99.90;;;;;;5069377;28;20225;-85
2022/05/03 05:11:48;;;;;;;40.27;30.97;;;9.30;99.90;;;;;;5072200;28;20635;-84
2022/05/03 05:14:15;;;;;;;45.70;32.33;;;9.40;99.90;;;;;;5072672;28;20205;-85
2022/05/03 05:16:42;;;;;;;40.83;30.53;;;9.50;99.90;;;;;;5071975;28;20205;-85
2022/05/03 05:19:10;;;;;;;38.77;29.67;;;9.50;99.90;;;;;;5090543;28;20566;-85
2022/05/03 05:21:36;;;;;;;46.00;32.93;;;9.60;99.90;;;;;;5090948;28;20208;-81
2022/05/03 05:24:03;;;;;;;43.63;30.63;;;9.70;99.90;;;;;;5080716;28;20249;-81
2022/05/03 05:26:31;;;;;;;38.13;29.97;;;9.70;99.90;;;;;;5069847;28;20199;-82
2022/05/03 05:28:58;;;;;;;40.00;28.23;;;9.80;99.90;;;;;;5069631;28;20225;-82
2022/05/03 05:31:25;;;;;;;40.83;30.13;;;9.80;99.90;;;;;;5070119;28;20205;-82
2022/05/03 05:33:52;;;;;;;45.60;33.73;;;9.90;99.90;;;;;;5069729;28;20205;-83
2022/05/03 05:36:20;;;;;;;53.73;35.93;;;10.00;99.90;;;;;;5068845;28;20296;-85
2022/05/03 05:38:46;;;;;;;47.67;32.47;;;10.10;99.90;;;;;;5070526;28;20215;-82
2022/05/03 05:41:14;;;;;;;47.63;32.67;;;10.20;99.90;;;;;;5069824;28;20874;-84
2022/05/03 05:43:42;;;;;;;54.53;35.87;;;10.20;99.90;;;;;;5068771;28;20202;-82
2022/05/03 05:46:09;;;;;;;53.20;35.37;;;10.30;99.90;;;;;;5069980;28;20197;-85
2022/05/03 05:48:38;;;;;;;56.10;35.00;;;10.40;99.90;;;;;;5069811;28;20234;-83
2022/05/03 05:51:05;;;;;;;51.30;33.27;;;10.40;99.90;;;;;;5069041;28;20201;-82
2022/05/03 05:53:33;;;;;;;61.30;39.37;;;10.50;99.90;;;;;;5071469;28;20202;-84
2022/05/03 05:56:00;;;;;;;53.27;34.87;;;10.60;99.90;;;;;;5073176;28;20201;-84
2022/05/03 05:58:26;;;;;;;62.60;37.57;;;10.60;99.90;;;;;;5091661;28;20219;-85
2022/05/03 06:00:53;;;;;;;78.63;44.70;;;10.70;99.90;;;;;;5093025;28;20655;-85
2022/05/03 06:03:22;;;;;;;69.50;40.90;;;10.80;99.90;;;;;;5092323;28;20228;-85
2022/05/03 06:05:49;;;;;;;85.90;47.30;;;10.80;99.90;;;;;;5087761;28;20599;-82
2022/05/03 06:08:16;;;;;;;81.10;43.30;;;10.90;99.90;;;;;;5070776;28;20221;-83
2022/05/03 06:10:45;;;;;;;76.07;42.97;;;11.00;99.90;;;;;;5071430;28;20278;-84
2022/05/03 06:13:13;;;;;;;84.00;44.70;;;11.10;99.90;;;;;;5071436;28;20197;-83
2022/05/03 06:15:40;;;;;;;83.37;44.47;;;11.10;99.90;;;;;;5092220;28;20212;-84
2022/05/03 06:18:08;;;;;;;84.37;46.80;;;11.30;99.90;;;;;;5092059;28;20212;-83
2022/05/03 06:20:36;;;;;;;84.17;44.43;;;11.40;99.90;;;;;;5091404;28;20250;-84
2022/05/03 06:23:03;;;;;;;81.47;44.90;;;11.50;99.90;;;;;;5087072;28;20327;-84
2022/05/03 06:25:30;;;;;;;87.67;47.13;;;11.60;99.90;;;;;;5069632;28;20206;-83
2022/05/03 06:27:58;;;;;;;74.70;43.40;;;11.70;99.90;;;;;;5069563;28;20232;-84
2022/05/03 06:30:25;;;;;;;78.30;44.73;;;11.70;99.90;;;;;;5089676;28;20208;-85
2022/05/03 06:32:52;;;;;;;77.10;43.83;;;11.80;99.90;;;;;;5090396;28;20189;-84
2022/05/03 06:35:19;;;;;;;81.43;45.00;;;11.80;99.90;;;;;;5084203;28;20201;-83
2022/05/03 06:37:46;;;;;;;76.07;44.63;;;11.90;99.90;;;;;;5071607;28;20221;-83
2022/05/03 06:40:16;;;;;;;76.50;45.33;;;11.90;99.90;;;;;;5069878;28;20229;-86
2022/05/03 06:42:44;;;;;;;74.87;43.47;;;11.90;99.90;;;;;;5034741;28;20205;-84
2022/05/03 06:45:13;;;;;;;73.97;43.03;;;11.90;99.90;;;;;;5069594;28;20205;-85
2022/05/03 06:47:40;;;;;;;77.33;42.83;;;12.00;99.90;;;;;;5069759;28;20202;-85
2022/05/03 06:50:09;;;;;;;78.13;43.43;;;12.10;99.90;;;;;;5078746;28;20240;-83
2022/05/03 06:52:37;;;;;;;73.83;42.30;;;12.10;99.90;;;;;;5074305;28;20240;-84
2022/05/03 06:55:05;;;;;;;68.40;39.30;;;12.10;99.90;;;;;;5074920;28;20209;-84
2022/05/03 06:57:32;;;;;;;72.40;40.13;;;12.20;99.90;;;;;;5076811;28;20380;-84
2022/05/03 07:00:02;;;;;;;65.37;39.10;;;12.20;99.90;;;;;;5070952;28;20279;-84
2022/05/03 07:02:31;;;;;;;61.80;37.43;;;12.10;99.90;;;;;;5070928;28;20215;-86
2022/05/03 07:04:59;;;;;;;58.70;35.30;;;12.10;99.90;;;;;;5070911;28;20217;-83
2022/05/03 07:07:27;;;;;;;59.33;36.33;;;12.10;99.90;;;;;;5069385;28;20209;-85
2022/05/03 07:09:53;;;;;;;64.77;38.33;;;12.10;99.90;;;;;;5070278;28;20275;-85
2022/05/03 07:12:20;;;;;;;66.07;38.10;;;12.10;99.90;;;;;;5071223;28;20197;-85
2022/05/03 07:14:47;;;;;;;65.97;38.03;;;12.10;99.90;;;;;;5071546;28;20644;-82
2022/05/03 07:22:45;;;;;;;70.20;38.80;;;12.10;99.90;;;;;;5072738;28;20205;-84
2022/05/03 07:22:48;;;;;;;63.43;37.37;;;12.10;99.90;;;;;;5087707;28;20235;-83
2022/05/03 07:25:16;;;;;;;64.63;35.83;;;12.10;99.90;;;;;;5090351;28;20200;-85
2022/05/03 07:27:45;;;;;;;62.40;37.57;;;12.00;99.90;;;;;;5073090;28;20215;-85
2022/05/03 07:30:13;;;;;;;64.43;38.13;;;12.00;99.90;;;;;;5069977;28;20251;-84
2022/05/03 07:32:39;;;;;;;65.33;39.93;;;12.00;99.90;;;;;;5074547;28;20201;-85
2022/05/03 07:35:09;;;;;;;61.10;37.83;;;12.10;99.90;;;;;;5074997;28;20189;-84
2022/05/03 07:37:37;;;;;;;75.43;38.87;;;12.10;99.90;;;;;;5074424;28;20223;-84
2022/05/03 07:40:05;;;;;;;66.27;38.67;;;12.10;99.90;;;;;;5072876;28;20212;-83
2022/05/03 07:42:32;;;;;;;70.00;39.80;;;12.20;99.90;;;;;;5074111;28;20195;-84
2022/05/03 07:44:59;;;;;;;61.67;37.13;;;12.20;99.90;;;;;;5073224;28;20201;-84
2022/05/03 07:47:26;;;;;;;66.63;37.87;;;12.10;99.90;;;;;;5074113;28;20208;-83
2022/05/03 07:49:53;;;;;;;67.77;40.07;;;12.10;99.90;;;;;;5074288;28;20239;-84
2022/05/03 07:52:21;;;;;;;72.40;40.90;;;12.20;99.90;;;;;;5073947;28;20205;-84
2022/05/03 07:54:48;;;;;;;76.13;41.43;;;12.20;99.90;;;;;;5074915;28;20193;-83
2022/05/03 07:57:15;;;;;;;75.30;42.43;;;12.20;99.90;;;;;;5073377;28;20208;-83
2022/05/03 07:59:42;;;;;;;75.77;40.97;;;12.20;99.90;;;;;;5072476;28;20204;-84
2022/05/03 08:02:09;;;;;;;57.20;32.70;;;12.10;99.90;;;;;;5073838;28;20212;-85
2022/05/03 08:04:36;;;;;;;44.77;27.93;;;12.00;99.90;;;;;;5093928;28;20660;-84
2022/05/03 08:07:03;;;;;;;36.17;23.63;;;12.00;99.90;;;;;;5082843;28;20220;-81
2022/05/03 08:09:32;;;;;;;27.47;19.23;;;11.90;99.90;;;;;;5074223;28;20228;-85
2022/05/03 08:12:00;;;;;;;22.50;16.17;;;11.90;99.90;;;;;;5072103;28;20205;-83
2022/05/03 08:14:27;;;;;;;21.00;14.53;;;11.80;99.90;;;;;;5092332;28;20291;-84
2022/05/03 08:16:54;;;;;;;19.43;13.93;;;11.80;99.90;;;;;;5093420;28;20588;-85
2022/05/03 08:19:21;;;;;;;16.77;12.07;;;11.80;99.90;;;;;;5085584;28;20198;-87
2022/05/03 08:21:48;;;;;;;16.73;12.07;;;11.70;99.90;;;;;;5074122;28;20749;-83
2022/05/03 08:24:15;;;;;;;14.50;11.83;;;11.80;99.90;;;;;;5080980;28;20523;-87
2022/05/03 08:26:43;;;;;;;19.90;10.73;;;11.70;99.90;;;;;;5094056;28;20196;-84
2022/05/03 08:29:10;;;;;;;11.77;9.73;;;11.60;99.90;;;;;;5092837;28;20539;-86
2022/05/03 08:31:37;;;;;;;12.27;9.97;;;11.60;99.90;;;;;;5093709;28;20525;-85
2022/05/03 08:34:03;;;;;;;14.93;10.50;;;11.60;99.90;;;;;;5073926;28;20205;-85
2022/05/03 08:36:31;;;;;;;10.57;9.43;;;11.70;99.90;;;;;;5073242;28;20229;-86
2022/05/03 08:44:25;;;;;;;12.93;9.17;;;11.80;99.90;;;;;;5071882;28;20288;-84
2022/05/03 08:46:54;;;;;;;14.90;9.30;;;11.70;99.90;;;;;;5073890;28;20552;-87
2022/05/03 08:49:23;;;;;;;14.57;9.27;;;11.80;99.90;;;;;;5073839;28;20532;-86
2022/05/03 08:51:53;;;;;;;13.70;8.53;;;11.80;99.90;;;;;;5074185;28;20217;-84
2022/05/03 08:54:20;;;;;;;11.73;7.87;;;11.90;99.90;;;;;;5072879;28;20229;-84
2022/05/03 08:56:49;;;;;;;10.97;8.33;;;11.90;99.90;;;;;;5072655;28;20193;-84
2022/05/03 08:59:16;;;;;;;12.93;8.30;;;11.90;99.90;;;;;;5073120;28;20201;-85
2022/05/03 09:01:42;;;;;;;12.07;8.20;;;11.90;99.90;;;;;;5073659;28;20552;-83
2022/05/03 09:04:10;;;;;;;13.00;9.10;;;11.90;99.90;;;;;;5072593;28;20201;-86
2022/05/03 09:06:45;;;;;;;10.67;8.40;;;11.90;99.90;;;;;;5073746;28;20220;-85
2022/05/03 09:09:13;;;;;;;11.63;7.40;;;11.90;99.90;;;;;;5071833;28;20239;-87
2022/05/03 09:11:45;;;;;;;10.80;7.87;;;11.90;99.90;;;;;;5073116;28;20967;-87
2022/05/03 09:14:15;;;;;;;11.67;7.87;;;11.90;99.90;;;;;;5072605;28;20205;-85
2022/05/03 09:16:48;;;;;;;8.93;7.57;;;11.90;99.90;;;;;;5072596;28;20558;-84
2022/05/03 09:19:23;;;;;;;9.77;7.03;;;11.90;99.90;;;;;;5072093;28;20197;-85
2022/05/03 09:24:53;;;;;;;7.17;6.13;;;12.10;99.90;;;;;;5072225;28;20243;-82
2022/05/03 09:27:22;;;;;;;8.50;6.87;;;12.20;99.90;;;;;;5072478;28;20178;-84
2022/05/03 09:30:04;;;;;;;12.20;7.33;;;12.30;99.90;;;;;;5073181;28;20581;-85
2022/05/03 09:32:35;;;;;;;8.90;7.20;;;12.20;99.90;;;;;;5072003;28;20252;-86
2022/05/03 09:35:03;;;;;;;13.10;7.53;;;12.20;99.90;;;;;;5070608;28;20201;-83
2022/05/03 09:37:44;;;;;;;11.30;6.50;;;12.30;99.90;;;;;;5083387;28;20518;-86
2022/05/03 09:40:17;;;;;;;10.57;7.23;;;12.40;99.90;;;;;;5094184;28;20600;-83
2022/05/03 09:42:53;;;;;;;9.20;7.60;;;12.30;99.90;;;;;;5094107;28;20201;-85
2022/05/03 09:45:24;;;;;;;10.53;7.27;;;12.30;99.90;;;;;;5087104;28;20209;-84
2022/05/03 09:47:54;;;;;;;15.03;8.17;;;12.20;99.90;;;;;;5072978;28;20220;-86
2022/05/03 09:50:44;;;;;;;10.77;6.80;;;12.30;99.90;;;;;;5071648;28;20311;-84
2022/05/03 09:53:16;;;;;;;12.13;8.17;;;12.30;99.90;;;;;;5066982;28;20201;-85
2022/05/03 09:55:45;;;;;;;10.83;7.57;;;12.20;99.90;;;;;;5074852;28;20235;-84
2022/05/03 09:58:15;;;;;;;11.87;7.63;;;12.10;99.90;;;;;;5072297;28;20205;-82
2022/05/03 10:00:46;;;;;;;10.67;7.37;;;12.10;99.90;;;;;;5074263;28;20200;-85
2022/05/03 10:03:14;;;;;;;13.97;7.13;;;12.00;99.90;;;;;;5073590;28;20205;-85
2022/05/03 10:05:43;;;;;;;14.80;6.93;;;12.00;99.90;;;;;;5074272;28;20220;-84
2022/05/03 10:08:11;;;;;;;9.23;6.10;;;12.00;99.90;;;;;;5081632;23;20325;-85
2022/05/03 10:10:43;;;;;;;11.50;5.63;;;12.00;99.90;;;;;;5053746;28;20640;-85
2022/05/03 10:13:16;;;;;;;10.60;5.70;;;12.00;99.90;;;;;;5054242;28;20216;-84
2022/05/03 10:21:28;;;;;;;8.00;5.97;;;12.10;99.90;;;;;;5037609;28;20186;-84
2022/05/03 10:24:03;;;;;;;9.17;6.10;;;12.00;99.90;;;;;;5035744;28;20842;-85
2022/05/03 10:26:56;;;;;;;16.93;6.37;;;12.00;99.90;;;;;;5034924;28;20213;-84
2022/05/03 10:29:25;;;;;;;10.27;5.93;;;11.90;99.90;;;;;;5035557;28;20300;-85
2022/05/03 10:31:56;;;;;;;11.10;6.00;;;11.90;99.90;;;;;;5052137;28;20291;-86
2022/05/03 10:34:56;;;;;;;8.90;5.90;;;11.80;99.90;;;;;;5051589;28;20202;-84
2022/05/03 10:37:57;;;;;;;13.77;6.10;;;11.80;99.90;;;;;;5018667;28;20275;-87
2022/05/03 10:40:31;;;;;;;11.07;5.83;;;11.80;99.90;;;;;;5029940;28;20568;-84
2022/05/03 10:43:07;;;;;;;15.00;6.80;;;11.80;99.90;;;;;;5043928;28;20226;-84
2022/05/03 10:45:51;;;;;;;8.87;6.00;;;11.80;99.90;;;;;;5032268;28;20206;-83
2022/05/03 10:48:31;;;;;;;9.97;5.63;;;11.80;99.90;;;;;;5031130;28;20222;-85
2022/05/03 10:51:00;;;;;;;14.67;7.73;;;11.90;99.90;;;;;;5031202;28;20948;-86
2022/05/03 10:53:34;;;;;;;10.07;6.07;;;11.90;99.90;;;;;;5031541;28;20587;-85
2022/05/03 10:56:19;;;;;;;14.37;5.83;;;11.90;99.90;;;;;;5031392;28;20210;-84
2022/05/03 10:59:12;;;;;;;13.13;5.87;;;12.00;99.90;;;;;;5031341;28;20197;-87
2022/05/03 11:02:10;;;;;;;12.97;5.87;;;12.10;99.90;;;;;;5031527;28;20199;-85
2022/05/03 11:05:16;;;;;;;13.60;6.23;;;12.10;99.90;;;;;;5022886;28;20225;-85
2022/05/03 11:07:57;;;;;;;14.47;7.30;;;12.10;99.90;;;;;;5022674;28;20308;-85
2022/05/03 11:10:40;;;;;;;12.80;5.97;;;12.10;99.90;;;;;;5007063;28;20238;-85
2022/05/03 11:13:42;;;;;;;13.27;6.23;;;12.20;99.90;;;;;;5011154;28;20673;-82
2022/05/03 11:16:23;;;;;;;12.77;6.57;;;12.40;99.90;;;;;;5010673;28;20214;-86
2022/05/03 11:18:50;;;;;;;12.67;6.27;;;12.30;99.90;;;;;;5010389;28;20203;-84
2022/05/03 11:21:19;;;;;;;14.70;6.57;;;12.40;99.90;;;;;;5008216;28;20203;-83
2022/05/03 11:23:52;;;;;;;14.03;7.50;;;12.40;99.90;;;;;;5010140;28;20391;-84
2022/05/03 11:26:20;;;;;;;11.97;6.87;;;12.50;99.90;;;;;;5010178;28;20199;-86
2022/05/03 11:28:48;;;;;;;16.80;7.40;;;12.60;99.90;;;;;;5009270;28;20202;-83
2022/05/03 11:31:18;;;;;;;14.07;6.93;;;12.70;99.90;;;;;;5009862;28;20888;-83
2022/05/03 11:33:52;;;;;;;19.03;8.47;;;12.60;99.90;;;;;;5008703;28;20261;-84
2022/05/03 11:36:21;;;;;;;14.03;8.07;;;12.70;99.90;;;;;;5008482;28;20289;-84
2022/05/03 11:38:49;;;;;;;16.97;8.23;;;12.70;99.90;;;;;;5009524;28;20219;-85
2022/05/03 11:41:16;;;;;;;14.03;7.00;;;12.70;99.90;;;;;;5008970;28;20242;-84
2022/05/03 11:43:43;;;;;;;16.73;5.97;;;12.70;99.90;;;;;;5010643;28;20210;-83
2022/05/03 11:46:10;;;;;;;13.53;6.10;;;12.70;99.90;;;;;;5010563;28;20295;-84
2022/05/03 11:48:38;;;;;;;14.87;6.17;;;12.60;99.90;;;;;;5011404;28;20203;-81
2022/05/03 11:56:36;;;;;;;16.17;6.93;;;12.50;99.90;;;;;;5009831;28;20245;-87
2022/05/03 11:59:05;;;;;;;12.13;6.07;;;12.50;99.90;;;;;;5011008;28;20211;-84
2022/05/03 12:01:34;;;;;;;12.77;6.67;;;12.50;99.90;;;;;;5010292;28;20310;-83
2022/05/03 12:04:02;;;;;;;12.97;5.70;;;12.50;99.90;;;;;;5011554;28;20639;-86
2022/05/03 12:06:43;;;;;;;11.50;6.07;;;12.50;99.90;;;;;;5011305;28;20211;-82
2022/05/03 12:09:11;;;;;;;14.80;6.33;;;12.60;99.90;;;;;;5026311;28;20258;-85
2022/05/03 12:12:42;;;;;;;16.23;5.97;;;12.70;99.90;;;;;;5028750;28;20500;-83
2022/05/03 12:14:33;;;;;;;17.77;6.20;;;12.70;99.90;;;;;;5039581;28;20297;-83
2022/05/03 12:17:00;;;;;;;12.63;5.17;;;12.60;99.90;;;;;;5040731;28;20221;-82
2022/05/03 12:19:34;;;;;;;16.07;6.60;;;12.50;99.90;;;;;;5047734;28;20198;-85
2022/05/03 12:22:10;;;;;;;13.33;5.73;;;12.60;99.90;;;;;;5033038;28;20202;-83
2022/05/03 12:24:41;;;;;;;15.73;6.00;;;12.50;99.90;;;;;;5033196;28;20537;-85
2022/05/03 12:27:12;;;;;;;11.93;5.57;;;12.50;99.90;;;;;;5046538;28;20758;-84
2022/05/03 12:29:43;;;;;;;11.00;4.57;;;12.50;99.90;;;;;;5049717;28;20227;-85
2022/05/03 12:32:14;;;;;;;11.37;5.13;;;12.50;99.90;;;;;;5032673;28;20202;-83
2022/05/03 12:34:42;;;;;;;13.50;4.70;;;12.50;99.90;;;;;;5033470;28;20214;-85
2022/05/03 12:37:09;;;;;;;21.37;5.60;;;12.50;99.90;;;;;;5032806;28;20226;-85
2022/05/03 12:39:36;;;;;;;11.50;4.53;;;12.60;99.90;;;;;;5030542;28;20633;-85
2022/05/03 12:42:10;;;;;;;17.10;4.80;;;12.60;99.90;;;;;;5030855;28;20868;-83
2022/05/03 12:44:48;;;;;;;12.67;4.60;;;12.80;99.90;;;;;;5032528;28;20198;-84
2022/05/03 12:47:15;;;;;;;14.13;4.83;;;12.80;99.90;;;;;;5030953;28;20190;-84
2022/05/03 12:49:43;;;;;;;10.60;4.80;;;12.80;99.90;;;;;;5030822;28;20202;-84
2022/05/03 12:52:09;;;;;;;12.27;4.73;;;12.90;99.90;;;;;;5031778;28;20224;-84
2022/05/03 12:54:39;;;;;;;10.03;4.30;;;13.00;99.90;;;;;;5031852;28;20218;-83
2022/05/03 12:59:53;;;;;;;12.73;4.77;;;12.90;99.90;;;;;;5031986;28;20214;-82
2022/05/03 13:02:19;;;;;;;18.90;5.70;;;13.10;99.90;;;;;;5031082;28;20217;-86
2022/05/03 13:04:47;;;;;;;12.27;4.87;;;13.20;99.90;;;;;;5031826;28;20875;-81
2022/05/03 13:07:14;;;;;;;12.17;5.00;;;13.30;99.90;;;;;;5030765;28;20203;-81
2022/05/03 13:09:41;;;;;;;10.33;4.33;;;13.30;99.90;;;;;;5028720;28;20205;-83
2022/05/03 13:12:11;;;;;;;11.63;4.90;;;13.30;99.90;;;;;;5031138;28;20194;-85
2022/05/03 13:14:38;;;;;;;12.97;5.40;;;13.30;99.90;;;;;;5031152;28;20225;-83
2022/05/03 13:17:05;;;;;;;15.73;5.30;;;13.30;99.90;;;;;;5031677;28;20202;-83
2022/05/03 13:19:32;;;;;;;14.13;4.87;;;13.30;99.90;;;;;;5031551;28;20212;-84
2022/05/03 13:21:59;;;;;;;14.00;5.20;;;13.30;99.90;;;;;;5031791;28;20199;-83
2022/05/03 13:24:26;;;;;;;12.13;5.53;;;13.10;99.90;;;;;;5032546;28;20209;-85
2022/05/03 13:26:54;;;;;;;10.60;5.00;;;13.20;99.90;;;;;;5031176;28;20224;-83
2022/05/03 13:29:22;;;;;;;14.03;5.23;;;13.30;99.90;;;;;;5028422;28;20214;-83
2022/05/03 13:31:50;;;;;;;11.57;4.67;;;13.30;99.90;;;;;;5030559;28;20226;-85